Latest Coastal Weather Observations for Cape Borda

IDS60701

Issued at 12:01 pm CST Tuesday 28 June 2022 (issued every 10 minutes, with the page automatically refreshed every 10 minutes)

About coastal observations | Map of coastal stations | Coastal observations for SA | Marine services | Other Formats
Station Details ID: 022823 Name: CAPE BORDA Lat: -35.75 Lon: 136.60 Height: 158.0 m
Data from the previous 72 hours. | See also: Recent months at Cape Borda
Date/Time
CST
Wind Sea
Height
m
Swell Vis
km
Cloud Weather Temp
°C
Press
MSL
hPa
Rain since
9am
mm
Dir  Spd
kts
Gust
kts
Height
m
Period
s
Dir
28/12:00pm NNW 14 19 - - - - - - - 14.3 1026.0 0.0
28/11:30am NNW 14 20 - - - - - - - 14.5 1026.5 0.0
28/11:00am NNW 15 21 - - - - - - - 14.0 1026.8 0.0
28/10:30am NNW 15 22 - - - - - - - 13.9 1027.0 0.0
28/10:00am NNW 14 19 - - - - - - - 13.6 1027.2 0.0
28/09:30am NNW 13 18 - - - - - - - 13.4 1027.1 0.0
28/09:00am N 13 20 - - - - - - - 13.1 1027.1 0.0
28/08:30am NNW 15 20 - - - - - - - 12.8 1027.3 0.0
28/08:00am NNW 16 23 - - - - - - - 12.6 1027.4 0.0
28/07:30am NNW 15 19 - - - - - - - 12.6 1027.6 0.0
28/07:00am NNW 15 20 - - - - - - - 12.3 1027.5 0.0
28/06:30am N 13 19 - - - - - - - 12.2 1027.4 0.0
28/06:00am N 12 17 - - - - - - - 12.1 1027.1 0.0
28/05:30am N 13 18 - - - - - - - 11.9 1026.9 0.0
28/05:00am N 13 19 - - - - - - - 11.7 1026.9 0.0
28/04:30am NNE 11 15 - - - - - - - 11.5 1027.1 0.0
28/04:00am NNE 11 16 - - - - - - - 11.5 1027.7 0.0
28/03:30am NNE 13 18 - - - - - - - 11.2 1027.6 0.0
28/03:00am NNE 13 17 - - - - - - - 11.0 1027.8 0.0
28/02:30am NNE 13 18 - - - - - - - 10.9 1028.2 0.0
28/02:00am NNE 12 15 - - - - - - - 10.6 1028.8 0.0
28/01:30am NNE 11 15 - - - - - - - 10.6 1029.1 0.0
28/01:00am NNE 12 17 - - - - - - - 10.5 1029.3 0.0
28/12:30am N 11 15 - - - - - - - 10.5 1029.6 0.0
28/12:00am N 12 17 - - - - - - - 10.6 1030.0 0.0
 
Date/Time
CST
Wind Sea
Height
m
Swell Vis
km
Cloud Weather Temp
°C
Press
MSL
hPa
Rain since
9am
mm
Dir  Spd
kts
Gust
kts
Height
m
Period
s
Dir
27/11:30pm NNE 11 17 - - - - - - - 10.4 1030.2 0.0
27/11:00pm NNE 13 19 - - - - - - - 10.6 1030.4 0.0
27/10:30pm NNE 12 16 - - - - - - - 10.8 1030.5 0.0
27/10:00pm NNE 12 17 - - - - - - - 10.8 1030.8 0.0
27/09:30pm NNE 13 18 - - - - - - - 10.8 1031.0 0.0
27/09:00pm N 13 18 - - - - - - - 11.0 1031.6 0.0
27/08:30pm N 11 16 - - - - - - - 11.2 1031.7 0.0
27/08:00pm N 10 15 - - - - - - - 11.2 1031.9 0.0
27/07:30pm N 9 15 - - - - - - - 11.3 1031.8 0.0
27/07:00pm N 9 14 - - - - - - - 11.4 1031.7 0.0
27/06:30pm NNW 9 13 - - - - - - - 11.4 1032.1 0.0
27/06:00pm N 10 16 - - - - - - - 11.7 1032.0 0.0
27/05:30pm N 9 13 - - - - - - - 11.7 1031.9 0.0
27/05:00pm N 8 11 - - - - - - - 11.9 1032.0 0.0
27/04:30pm N 9 11 - - - - - - - 12.0 1032.0 0.0
27/04:00pm NNW 8 12 - - - - - - - 12.3 1032.0 0.0
27/03:30pm NNW 9 15 - - - - - - - 12.4 1032.2 0.0
27/03:00pm N 9 14 - - - - - - - 12.4 1032.3 0.0
27/02:30pm N 8 11 - - - - - - - 12.5 1032.5 0.0
27/02:00pm N 8 11 - - - - - - - 12.5 1032.9 0.0
27/01:30pm NNW 9 12 - - - - - - - 13.5 1033.6 0.0
27/01:00pm N 7 11 - - - - - - - 12.6 1033.9 0.0
27/12:30pm N 7 10 - - - - - - - 12.6 1034.4 0.0
27/12:00pm NNW 8 11 - - - - - - - 12.5 1035.0 0.0
27/11:30am N 7 12 - - - - - - - 12.7 1035.3 0.0
27/11:00am N 7 11 - - - - - - - 12.2 1035.3 0.0
27/10:30am N 7 11 - - - - - - - 12.6 1035.4 0.0
27/10:00am NNW 8 11 - - - - - - - 12.1 1035.3 0.0
27/09:30am N 6 9 - - - - - - - 11.6 1035.3 0.0
27/09:00am NE 4 6 - - - - - - - 9.9 1035.2 0.2
27/08:30am ENE 4 6 - - - - - - - 8.4 1034.8 0.2
27/08:00am E 5 7 - - - - - - - 7.0 1034.7 0.2
27/07:30am ESE 6 7 - - - - - - - 7.0 1034.4 0.2
27/07:00am ENE 5 6 - - - - - - - 7.9 1034.0 0.2
27/06:30am NE 6 7 - - - - - - - 7.6 1033.5 0.2
27/06:00am ENE 6 7 - - - - - - - 7.1 1033.1 0.2
27/05:30am ENE 6 8 - - - - - - - 7.0 1033.0 0.2
27/05:00am ENE 6 7 - - - - - - - 7.0 1032.8 0.2
27/04:30am E 6 7 - - - - - - - 7.4 1033.2 0.2
27/04:00am E 4 4 - - - - - - - 8.4 1033.2 0.2
27/03:30am ENE 3 4 - - - - - - - 8.5 1033.5 0.2
27/03:00am ENE 4 5 - - - - - - - 8.5 1033.3 0.2
27/02:30am ENE 6 6 - - - - - - - 8.0 1033.5 0.2
27/02:00am E 3 4 - - - - - - - 9.0 1033.5 0.2
27/01:30am ESE 3 4 - - - - - - - 8.5 1033.7 0.2
27/01:00am E 5 5 - - - - - - - 8.1 1033.7 0.2
27/12:30am ESE 5 7 - - - - - - - 8.8 1033.8 0.2
27/12:00am ESE 6 7 - - - - - - - 9.3 1033.9 0.2
 
Date/Time
CST
Wind Sea
Height
m
Swell Vis
km
Cloud Weather Temp
°C
Press
MSL
hPa
Rain since
9am
mm
Dir  Spd
kts
Gust
kts
Height
m
Period
s
Dir
26/11:30pm SSE 5 9 - - - - - - - 9.5 1033.8 0.2
26/11:00pm SE 5 7 - - - - - - - 9.2 1033.7 0.2
26/10:30pm ESE 6 11 - - - - - - - 9.0 1033.2 0.2
26/10:00pm ESE 6 7 - - - - - - - 8.4 1033.1 0.2
26/09:30pm ESE 7 8 - - - - - - - 8.3 1032.9 0.2
26/09:00pm SE 7 7 - - - - - - - 7.3 1032.7 0.2
26/08:30pm SE 7 8 - - - - - - - 8.4 1032.4 0.2
26/08:00pm SSE 8 9 - - - - - - - 8.2 1032.0 0.2
26/07:30pm SE 7 7 - - - - - - - 8.3 1031.9 0.2
26/07:00pm SSE 7 8 - - - - - - - 9.0 1031.6 0.2
26/06:30pm SSE 7 9 - - - - - - - 10.1 1031.2 0.2
26/06:00pm SSE 7 9 - - - - - - - 10.5 1031.0 0.2
26/05:30pm S 8 10 - - - - - - - 10.8 1030.6 0.2
26/05:00pm S 9 13 - - - - - - - 11.1 1030.2 0.2
26/04:30pm SSW 10 15 - - - - - - - 11.3 1029.9 0.2
26/04:00pm SSW 12 18 - - - - - - - 11.7 1029.6 0.2
26/03:30pm SSW 14 19 - - - - - - - 12.2 1029.2 0.2
26/03:00pm SSW 13 21 - - - - - - - 12.4 1029.1 0.2
26/02:30pm S 13 18 - - - - - - - 12.8 1028.8 0.2
26/02:00pm SSW 13 17 - - - - - - - 13.0 1028.7 0.2
26/01:30pm SSW 14 19 - - - - - - - 13.0 1028.5 0.2
26/01:00pm SSW 13 19 - - - - - - - 13.4 1028.5 0.2
26/12:30pm SSW 15 19 - - - - - - - 13.5 1028.5 0.2
26/12:00pm SSW 13 17 - - - - - - - 13.5 1028.6 0.2
26/11:30am S 13 16 - - - - - - - 12.8 1028.6 0.2
26/11:00am S 11 15 - - - - - - - 12.3 1028.6 0.2
26/10:30am S 12 18 - - - - - - - 12.2 1028.4 0.2
26/10:00am S 12 16 - - - - - - - 12.6 1027.8 0.2
26/09:30am S 11 16 - - - - - - - 11.6 1027.7 0.0
26/09:00am S 13 18 - - - - - - - 11.2 1027.3 1.0
26/08:30am S 10 15 - - - - - - - 11.2 1026.7 1.0
26/08:00am SSW 14 21 - - - - - - - 11.2 1026.5 1.0
26/07:30am SW 11 15 - - - - - - - 11.8 1026.1 1.0
26/07:00am SW 10 15 - - - - - - - 11.2 1026.0 0.6
26/06:30am WSW 13 18 - - - - - - - 12.6 1025.5 0.6
26/06:00am SW 13 19 - - - - - - - 12.3 1025.2 0.6
26/05:30am SW 13 19 - - - - - - - 12.5 1024.9 0.6
26/05:00am SW 16 26 - - - - - - - 12.1 1024.5 0.6
26/04:53am WSW 16 26 - - - - - - - 12.7 1024.4 0.6
26/04:30am WSW 15 19 - - - - - - - 12.7 1024.3 0.6
26/04:00am WSW 13 19 - - - - - - - 12.9 1024.2 0.6
26/03:30am SW 13 18 - - - - - - - 12.7 1024.2 0.6
26/03:00am WSW 13 19 - - - - - - - 12.8 1024.1 0.6
26/02:30am WSW 14 19 - - - - - - - 12.7 1024.1 0.6
26/02:00am SW 13 18 - - - - - - - 12.7 1024.1 0.6
26/01:30am SW 13 20 - - - - - - - 12.8 1023.8 0.6
26/01:00am WSW 15 21 - - - - - - - 12.9 1023.7 0.6
26/12:30am WSW 14 21 - - - - - - - 13.1 1023.7 0.6
26/12:00am WSW 14 20 - - - - - - - 13.3 1023.8 0.6
 
Date/Time
CST
Wind Sea
Height
m
Swell Vis
km
Cloud Weather Temp
°C
Press
MSL
hPa
Rain since
9am
mm
Dir  Spd
kts
Gust
kts
Height
m
Period
s
Dir
25/11:30pm WSW 14 20 - - - - - - - 13.3 1023.7 0.6
25/11:00pm WSW 16 21 - - - - - - - 13.3 1023.6 0.6
25/10:30pm WSW 11 17 - - - - - - - 12.9 1023.5 0.6
25/10:00pm WSW 12 17 - - - - - - - 13.4 1023.4 0.6
25/09:30pm SW 12 18 - - - - - - - 13.2 1023.2 0.6
25/09:00pm WSW 15 20 - - - - - - - 13.5 1023.1 0.6
25/08:30pm WSW 16 23 - - - - - - - 13.3 1023.0 0.6
25/08:09pm W 18 28 - - - - - - - 13.3 1023.0 0.6
25/08:00pm W 19 26 - - - - - - - 13.5 1022.9 0.6
25/07:30pm WSW 16 23 - - - - - - - 13.3 1022.4 0.6
25/07:00pm WSW 16 21 - - - - - - - 13.2 1022.2 0.6
25/06:30pm W 16 21 - - - - - - - 13.2 1021.9 0.6
25/06:00pm W 17 23 - - - - - - - 13.1 1021.5 0.6
25/05:30pm W 17 22 - - - - - - - 13.2 1021.1 0.6
25/05:11pm W 15 25 - - - - - - - 13.2 1020.9 0.6
25/05:00pm WSW 12 16 - - - - - - - 13.4 1020.9 0.6
25/04:30pm W 14 21 - - - - - - - 14.1 1020.6 0.6
25/04:00pm W 15 20 - - - - - - - 14.3 1020.6 0.6
25/03:30pm W 15 20 - - - - - - - 14.5 1020.6 0.6
25/03:00pm W 17 23 - - - - - - - 14.6 1020.6 0.6
25/02:30pm W 17 23 - - - - - - - 14.9 1020.5 0.6
25/02:00pm W 18 25 - - - - - - - 14.9 1020.5 0.6
25/01:30pm W 17 23 - - - - - - - 14.8 1020.9 0.6
25/01:00pm W 14 21 - - - - - - - 14.6 1021.1 0.6
25/12:30pm W 14 20 - - - - - - - 13.8 1021.5 0.6

Other formats

Comma delimited format used in spreadsheet applications
http://www.bom.gov.au/fwo/IDS60701/IDS60701.95805.axf

JavaScript Object Notation format (JSON) in row-major order
http://www.bom.gov.au/fwo/IDS60701/IDS60701.95805.json

Data quality

Most of these data are generated automatically and are frequently updated. Quality checks on data are not normally performed. It is possible for incorrect values to appear. Refer to information at About Latest Weather Observations and please check the disclaimer before using these data.